CDT,Max TemperatureF,Mean TemperatureF,Min TemperatureF,Max Dew PointF,MeanDew PointF,Min DewpointF,Max Humidity, Mean Humidity, Min Humidity, Max Sea Level PressureIn, Mean Sea Level PressureIn, Min Sea Level PressureIn, Max VisibilityMiles, Mean VisibilityMiles, Min VisibilityMiles, Max Wind SpeedMPH, Mean Wind SpeedMPH, Max Gust SpeedMPH,PrecipitationIn, CloudCover, Events, WindDirDegrees
2011-10-1,69,50,30,41,33,25,100,66,18,30.34,30.27,30.22,10,10,7,8,2,,0.00,0,,141
2011-10-2,75,54,32,43,34,25,100,63,15,30.28,30.22,30.15,10,10,7,9,2,16,0.00,0,,173
2011-10-3,80,56,33,46,34,19,100,58,10,30.23,30.18,30.13,10,10,5,10,2,,0.00,0,,152
2011-10-4,89,66,44,45,39,32,87,46,13,30.17,30.13,30.07,10,10,10,16,4,22,0.00,0,,169
2011-10-5,84,63,42,48,37,21,100,49,10,30.14,30.09,30.02,10,10,10,16,3,23,0.00,0,,170
2011-10-6,82,65,48,45,39,30,76,41,15,30.06,30.01,29.93,10,10,10,21,7,32,0.00,0,,154
2011-10-7,84,73,62,55,52,45,59,45,35,30.05,29.99,29.95,10,10,10,26,15,38,0.00,3,,167
2011-10-8,82,72,62,59,52,48,68,51,37,30.11,30.06,30.02,10,10,10,22,11,29,0.00,3,,166
2011-10-9,80,70,59,54,51,46,77,57,30,30.18,30.15,30.08,10,10,10,14,6,20,0.00,1,,153
2011-10-10,71,60,48,55,53,46,100,70,50,30.03,29.98,29.96,10,9,0,8,5,,0.00,3,Fog,184
2011-10-11,75,60,46,63,50,37,100,75,25,29.97,29.88,29.78,10,6,0,13,3,18,0.01,4,Fog,166
2011-10-12,69,60,50,59,54,48,100,85,60,29.78,29.72,29.66,10,9,5,13,1,24,0.22,4,Rain,22
2011-10-13,71,60,48,50,39,25,88,53,18,29.83,29.79,29.75,10,10,7,18,11,30,0.00,0,,302
2011-10-14,60,51,42,36,30,21,71,41,22,29.97,29.91,29.82,10,10,10,22,11,33,0.00,1,,298
2011-10-15,71,52,33,36,28,18,87,51,15,30.08,30.00,29.84,10,10,10,15,5,21,0.00,0,,211
2011-10-16,59,54,46,46,38,30,87,58,34,30.06,29.93,29.73,10,10,10,16,7,20,0.00,0,,341
2011-10-17,48,39,30,43,38,30,100,88,76,30.06,30.02,29.98,10,8,1,9,1,,0.15,4,Rain,317
2011-10-18,51,46,42,41,33,27,87,63,38,30.05,30.01,29.97,10,10,10,20,7,25,0.00,3,,332
2011-10-19,50,39,28,28,25,21,80,60,40,30.07,30.04,30.02,10,10,10,21,9,25,0.00,3,,345
2011-10-20,53,42,30,30,28,25,93,61,33,30.06,30.02,29.99,10,10,10,14,8,22,0.00,1,,317
2011-10-21,68,46,23,36,27,21,100,65,20,30.14,30.08,30.04,10,10,7,13,2,17,0.00,0,,197
2011-10-22,64,48,33,54,41,32,100,77,40,30.13,30.09,30.03,10,9,1,6,1,,0.00,2,Rain,17
2011-10-23,75,54,33,52,40,32,100,67,21,30.03,29.96,29.87,10,7,0,13,3,18,0.00,3,Fog,241
2011-10-24,78,55,32,41,33,25,100,57,14,30.13,30.03,29.88,10,10,7,14,3,20,0.00,0,,166
2011-10-25,78,66,53,52,45,39,62,47,26,29.91,29.77,29.68,10,10,7,20,14,28,0.00,0,,218
2011-10-26,53,47,41,37,36,34,81,64,47,30.10,30.05,29.96,10,10,10,17,10,23,0.00,2,,349
2011-10-27,57,42,28,36,27,12,100,58,18,30.16,30.12,30.09,10,10,5,10,4,16,0.00,2,,333
2011-10-28,57,40,23,30,20,1,93,54,11,30.18,30.16,30.14,10,10,10,18,4,25,0.00,0,,312
2011-10-29,62,40,19,25,19,16,93,50,16,30.15,30.03,29.87,10,10,10,14,3,16,0.00,0,,164
2011-10-30,59,48,37,36,25,12,62,38,16,30.04,29.97,29.85,10,10,10,23,11,30,0.00,1,Rain,285
2011-10-31,64,42,19,28,20,12,93,52,13,30.11,30.04,29.96,10,10,10,10,2,12,0.00,0,,172